AirNav   Air Wisconsin Up To $57,000 Bonus
 
 821 users online  

17NJ CMC Steel New Jersey Heliport
Sayreville, New Jersey, USA

GOING TO SAYREVILLE?


FAA INFORMATION EFFECTIVE 26 MARCH 2020

Location

FAA Identifier: 17NJ
Lat/Long: 40-29-10.3800N 074-19-19.5310W
40-29.173000N 074-19.325517W
40.4862167,-74.3220919
(estimated)
Elevation: 32 ft. / 9.8 m (surveyed)
Variation: 12W (1985)
From city: 4 miles NE of SAYREVILLE, NJ
Time zone: UTC -4 (UTC -5 during Standard Time)
Zip code: 08872

Heliport Operations

Heliport use: Private use. Permission required prior to landing
Activation date: 03/1991
Control tower: no
ARTCC: NEW YORK CENTER
FSS: MILLVILLE FLIGHT SERVICE STATION
Attendance: 0700-1900
Wind indicator: yes
Segmented circle: no

Heliport Communications

WX AWOS-3 at LDJ (9 nm NE): 124.025 (908-862-7383)
WX ASOS at EWR (14 nm NE): PHONE 973-621-2892
WX ASOS at SMQ (18 nm NW): 120.6 (908-722-2139)
WX AWOS-3PT at JRB (19 nm NE): 128.175 (212-425-1534)
WX AWOS-3 at MMU (19 nm N): PHONE 973-290-0135

Nearby radio navigation aids

VOR radial/distance  VOR name  Freq  Var
COLr336/12.8COLTS NECK VOR/DME115.4011W
RBVr035/18.8ROBBINSVILLE VORTAC113.8010W
SBJr117/20.0SOLBERG VOR/DME112.9010W
CRIr260/20.9CANARSIE VOR/DME112.3011W
TEBr220/24.8TETERBORO VOR/DME108.4011W
JFKr263/26.6KENNEDY VOR/DME115.9012W
LGAr241/27.3LA GUARDIA VOR/DME113.1012W
BWZr140/29.5BROADWAY VOR/DME114.2011W
ARDr072/30.2YARDLEY VOR/DME108.2010W
GXUr036/31.2MC GUIRE VORTAC110.6012W
SAXr175/36.2SPARTA VORTAC115.7011W
STWr152/39.4STILLWATER VOR/DME109.6011W

 
NDB name  Hdg/Dist  Freq  Var  ID
CHATHAM175/16.025413WCAT -.-. .- -
LAKEHURST012/26.539611WNEL -. . .-..

Heliport Services

Runway Information

Helipad H1

Dimensions: 50 x 50 ft. / 15 x 15 m
Surface: asphalt
Operational restrictions: APCH/DEP PATHS 360 DEGS OR 219 DEGS.
Latitude: 40-29.173000N
Longitude: 074-19.325517W
Elevation: 32.0 ft.
Traffic pattern: leftleft

Heliport Ownership and Management from official FAA records

Ownership: Privately-owned
Owner: CMC STEEL NEW JERSEY
NORTH CROSSMAN RD
SAYREVILLE, NJ 08872
Phone 732-401-1062
Manager: MARK BLAIRE
NORTH CROSSMAN RD
SAYREVILLE, NJ 08872
Phone 732-401-1062

Additional Remarks

A52-H1 20 FT TREES 200 FT & 400 FT N; 60 FT TREES 400 FT E; 50 FT BLDG 1000 FT SW OF HELIPAD.
FOR CD CTC NEW YORK APCH AT 800-645-3206.

Instrument Procedures

There are no published instrument procedures at 17NJ.

Some nearby airports with instrument procedures:

KLDJ - Linden Airport (9 nm NE)
3N6 - Old Bridge Airport (9 nm S)
47N - Central Jersey Regional Airport (13 nm W)
KEWR - Newark Liberty International Airport (14 nm NE)
39N - Princeton Airport (16 nm W)
KSMQ - Somerset Airport (18 nm NW)
KJRB - Downtown Manhattan/Wall Street Heliport (19 nm NE)
KMMU - Morristown Municipal Airport (19 nm N)
N51 - Solberg-Hunterdon Airport (20 nm W)
 
Loc | Ops | Rwys | IFR | FBO | Links
Com | Nav | Svcs | Stats | Notes
Area around 17NJ (CMC Steel New Jersey Heliport)
 
Road maps at: MapQuest Bing Google
 
Aerial photo
No photo
 
Sectional chart

 
Airport distance calculator
Flying to CMC Steel New Jersey Heliport? Find the distance to fly.

From to 17NJ

Sunrise and sunset
Times for 07-Apr-2020
 Local
(UTC-4)
 Zulu
(UTC)
Morning civil twilight06:0310:03
Sunrise06:3110:31
Sunset19:2823:28
Evening civil twilight19:5623:56

Current date and time
Zulu (UTC)  08-Apr-2020 00:40:41
Local (UTC-4)  07-Apr-2020 20:40:41
 
METAR
KLDJ 
9nm NE 
080015Z AUTO 00000KT 10SM SCT120 13/05 A2973 RMK AO2 T01310046
KEWR 
14nm NE 
072351Z 00000KT 10SM FEW060 SCT120 BKN250 13/04 A2974 RMK AO2 SLP070 T01330039 10200 20133 56011
KSMQ 
18nm NW 
ASOS 120.60 908-722-2139
072353Z AUTO 19003KT 10SM FEW055 SCT070 BKN100 16/05 A2971 RMK AO2 SLP059 T01610050 10206 20156 56015
KMMU 
18nm N 
072349Z 15008KT 10SM SCT150 16/03 A2973
KJRB 
19nm NE 
072356Z AUTO 01003KT 10SM CLR 13/04 A2976 RMK AO2 SLP076 T01280044 10200 20128 56015
TAF
KEWR 
14nm NE 
071931Z 0720/0824 16008KT P6SM SCT080 FM080800 21005KT 5SM -RA BR OVC020 FM081100 26005KT 5SM -RA BR OVC020 FM081300 29006KT P6SM BKN029 FM081400 33006KT P6SM BKN029 FM081700 36008KT P6SM BKN029 FM082000 03008KT P6SM BKN029 FM082200 06006KT P6SM BKN029
NOTAMs
Click for the latest NOTAMs
NOTAMs are issued by the DoD/FAA and will open in a separate window not controlled by AirNav.

 

 
 

Would you like to see your business listed on this page?

 If your business provides an interesting product or service to pilots, flight crews, aircraft, or users of the CMC Steel New Jersey Heliport, you should consider listing it here.  To start the listing process, click on the button below
 
Add a business
 

Other Pages about CMC Steel New Jersey Heliport

Update a link
 
Copyright © AirNav, LLC. All rights reserved. Privacy Policy  Contact